Search for airport 
image banner adimage banner ad
image banner ad

ZHHH - Wuhan / Tianhe

Located in Wuhan, China

ICAO - ZHHH, IATA - WUH

Data provided by Airmate  

General information

Coordinates: N30°47'6" E114°12'24"
Elevation is 115 feet MSL.
 
Rated:
View ratings: [VIEW]


View others Airports in Hubei Province

Operational data

Open for public use
Current time UTC:
Current local time:
Weather
METAR: ZHHH 070100Z 21008MPS CAVOK 32/24 Q1003 NOSIG
TAF: TAF ZHHH 062106Z 0700/0724 20006G11MPS 6000 NSC TX39/0707Z TN30/0721Z
View NOTAMs / SUP AIP / TFR affecting this airport [VIEW]
Communications frequencies: [VIEW]

Runways:

RWY identifierQFULength (ft)Width (ft)SurfaceLDA (ft)
04L42°11155148
22R222°11155148
04R42°11811197
22L222°11811197

Airport contact information

Address: Wuhan China

Satellite view of ZHHH